Time;durP1;ratioP1;P1;durP2;ratioP2;P2;SDS_P1;SDS_P2;PMS_P1;PMS_P2;Temp;Humidity;BMP_temperature;BMP_pressure;BME280_temperature;BME280_humidity;BME280_pressure;Samples;Min_cycle;Max_cycle;Signal;HPM_P1;HPM_P2
2023/06/13 07:10:12;;;;;;;18.02;10.75;;;31.40;99.90;;;;;;5043811;28;20854;-50
2023/06/13 07:13:17;;;;;;;20.80;11.00;;;31.90;99.90;;;;;;5043547;28;20381;-54
2023/06/13 07:16:21;;;;;;;18.27;10.13;;;32.00;99.90;;;;;;5043926;28;20040;-54
2023/06/13 07:19:25;;;;;;;14.25;9.00;;;32.90;99.80;;;;;;5046324;28;20048;-50
2023/06/13 07:22:29;;;;;;;13.88;5.22;;;32.20;98.70;;;;;;5040795;28;20498;-50
2023/06/13 07:25:33;;;;;;;7.30;5.38;;;31.50;99.80;;;;;;5041499;28;20064;-50
2023/06/13 07:28:37;;;;;;;7.13;4.57;;;31.50;99.80;;;;;;5039593;28;20040;-53
2023/06/13 07:31:41;;;;;;;7.10;4.38;;;31.10;99.90;;;;;;5041107;28;20021;-51
2023/06/13 07:34:45;;;;;;;13.60;3.83;;;31.00;99.90;;;;;;5052825;28;20028;-50
2023/06/13 07:37:50;;;;;;;4.43;3.30;;;31.40;99.90;;;;;;5041719;28;20048;-50
2023/06/13 07:40:54;;;;;;;4.03;3.08;;;31.30;99.20;;;;;;5042344;28;20037;-52
2023/06/13 07:43:58;;;;;;;4.47;3.50;;;31.00;99.70;;;;;;5042892;28;20029;-55
2023/06/13 07:47:02;;;;;;;6.55;3.17;;;30.70;99.20;;;;;;5041075;28;20037;-50
2023/06/13 07:50:07;;;;;;;6.65;3.65;;;31.00;99.60;;;;;;5049734;28;20037;-50
2023/06/13 07:53:11;;;;;;;6.97;4.00;;;29.20;99.90;;;;;;5047448;28;20036;-52
2023/06/13 07:56:15;;;;;;;4.80;3.30;;;29.10;99.90;;;;;;5041229;28;20041;-51
2023/06/13 07:59:19;;;;;;;7.40;3.63;;;30.00;99.90;;;;;;5047477;28;20041;-53
2023/06/13 08:02:24;;;;;;;5.65;3.17;;;31.40;99.10;;;;;;5044400;28;20049;-55
2023/06/13 08:05:28;;;;;;;4.80;3.28;;;32.80;98.30;;;;;;5037209;28;20030;-55
2023/06/13 08:08:32;;;;;;;3.67;2.70;;;33.30;97.20;;;;;;5044976;28;20037;-52
2023/06/13 08:11:36;;;;;;;6.15;3.15;;;34.40;96.00;;;;;;5043102;28;20463;-51
2023/06/13 08:14:40;;;;;;;4.78;2.90;;;34.80;94.30;;;;;;5050960;28;20037;-54
2023/06/13 08:17:43;;;;;;;3.40;2.88;;;34.90;93.60;;;;;;5046776;28;20499;-53
2023/06/13 08:20:48;;;;;;;5.38;2.92;;;35.40;93.50;;;;;;5036444;28;20034;-53
2023/06/13 08:23:52;;;;;;;6.65;2.70;;;36.40;92.80;;;;;;5023225;28;20388;-52
2023/06/13 08:26:57;;;;;;;5.95;2.67;;;37.40;91.70;;;;;;5029599;28;20030;-55
2023/06/13 08:30:04;;;;;;;3.58;2.85;;;37.00;92.10;;;;;;5033635;28;20037;-53
2023/06/13 08:33:09;;;;;;;5.85;2.97;;;36.80;91.60;;;;;;5025366;28;20049;-53
2023/06/13 08:36:13;;;;;;;3.17;2.88;;;36.00;92.50;;;;;;5021566;28;20038;-56
2023/06/13 08:39:18;;;;;;;5.88;3.22;;;35.80;93.10;;;;;;5024090;28;20381;-54
2023/06/13 08:42:23;;;;;;;4.82;2.90;;;36.00;92.60;;;;;;5030336;28;20136;-52
2023/06/13 08:45:27;;;;;;;10.43;3.15;;;36.50;92.10;;;;;;5017090;28;20033;-58
2023/06/13 08:48:32;;;;;;;4.57;3.10;;;36.20;92.10;;;;;;5033900;28;20072;-51
2023/06/13 08:51:37;;;;;;;4.80;3.50;;;36.30;91.90;;;;;;5021627;28;20041;-52
2023/06/13 08:54:43;;;;;;;4.22;3.45;;;37.00;91.60;;;;;;5036135;28;20099;-51
2023/06/13 08:57:53;;;;;;;7.20;4.00;;;37.10;91.60;;;;;;5027530;28;20512;-52
2023/06/13 09:01:00;;;;;;;9.02;4.45;;;36.70;91.50;;;;;;5024428;28;20046;-56
2023/06/13 09:04:08;;;;;;;6.25;4.63;;;35.80;91.70;;;;;;5041182;28;20032;-51
2023/06/13 09:07:13;;;;;;;5.65;4.47;;;35.10;92.90;;;;;;5030359;28;20037;-54
2023/06/13 09:10:18;;;;;;;4.90;3.72;;;34.20;93.20;;;;;;5025779;28;20041;-56
2023/06/13 09:13:23;;;;;;;9.02;3.83;;;33.20;93.90;;;;;;5027845;28;20610;-52
2023/06/13 09:16:29;;;;;;;4.07;3.40;;;33.70;94.10;;;;;;5025213;28;20025;-53
2023/06/13 09:19:34;;;;;;;6.40;3.40;;;34.10;93.70;;;;;;5030359;28;20388;-54
2023/06/13 09:22:40;;;;;;;6.20;3.40;;;34.60;93.90;;;;;;5020078;28;20029;-56
2023/06/13 09:25:48;;;;;;;5.78;3.67;;;34.80;92.80;;;;;;5031738;28;20050;-56
2023/06/13 09:28:52;;;;;;;4.18;3.38;;;34.60;94.00;;;;;;5029248;28;20408;-51
2023/06/13 09:31:58;;;;;;;4.35;3.17;;;34.40;93.00;;;;;;5020072;28;20026;-56
2023/06/13 09:35:03;;;;;;;4.13;2.95;;;34.10;93.70;;;;;;5034116;28;20045;-54
2023/06/13 09:38:07;;;;;;;4.85;2.90;;;33.60;94.50;;;;;;5028030;28;20041;-56
2023/06/13 09:41:13;;;;;;;6.57;2.90;;;33.60;95.20;;;;;;5025496;28;20034;-55
2023/06/13 09:44:17;;;;;;;6.88;3.28;;;33.80;95.00;;;;;;5021813;28;20037;-51
2023/06/13 09:47:23;;;;;;;4.95;3.35;;;34.20;94.20;;;;;;5028862;28;20037;-56
2023/06/13 09:50:30;;;;;;;2.83;2.25;;;34.90;94.30;;;;;;5022034;28;20513;-57
2023/06/13 09:53:35;;;;;;;3.03;2.25;;;35.20;92.10;;;;;;5033987;28;20037;-57
2023/06/13 09:56:43;;;;;;;4.57;2.30;;;35.60;91.60;;;;;;5024269;28;20041;-56
2023/06/13 09:59:48;;;;;;;3.55;2.83;;;35.80;92.10;;;;;;5029752;28;20041;-54
2023/06/13 10:02:53;;;;;;;3.28;2.90;;;35.80;92.30;;;;;;5028302;28;20048;-54
2023/06/13 10:06:00;;;;;;;4.70;2.75;;;35.60;92.80;;;;;;5026745;28;20052;-54
2023/06/13 10:09:04;;;;;;;6.25;3.28;;;35.30;92.70;;;;;;5027608;28;20048;-58
2023/06/13 10:12:11;;;;;;;4.30;2.72;;;34.70;93.00;;;;;;5021443;28;20033;-54
2023/06/13 10:15:23;;;;;;;4.90;3.15;;;34.20;93.40;;;;;;5026961;28;20038;-51
2023/06/13 10:18:37;;;;;;;4.88;4.15;;;33.20;94.10;;;;;;5026184;28;20040;-56
2023/06/13 10:21:41;;;;;;;7.68;4.55;;;32.40;95.90;;;;;;5028498;28;20033;-55
2023/06/13 10:24:50;;;;;;;14.18;5.45;;;31.40;96.90;;;;;;5045550;28;20052;-54
2023/06/13 10:28:11;;;;;;;7.22;4.78;;;30.40;97.80;;;;;;5025096;28;20044;-54
2023/06/13 10:31:52;;;;;;;7.18;4.85;;;29.60;98.40;;;;;;5030053;28;20056;-53
2023/06/13 10:35:31;;;;;;;10.17;4.80;;;28.90;99.30;;;;;;5028638;28;20041;-56
2023/06/13 10:38:54;;;;;;;7.82;4.95;;;28.20;99.90;;;;;;5024678;28;20044;-51
2023/06/13 10:42:11;;;;;;;5.90;4.10;;;27.60;99.90;;;;;;5023820;28;20044;-58
2023/06/13 10:45:23;;;;;;;7.15;4.13;;;27.10;99.90;;;;;;5026222;28;20043;-56
2023/06/13 10:48:37;;;;;;;7.90;4.70;;;26.70;99.90;;;;;;5018773;28;20045;-54
2023/06/13 10:51:43;;;;;;;6.25;4.72;;;26.40;99.90;;;;;;5015532;28;20026;-53
2023/06/13 10:54:55;;;;;;;6.10;4.80;;;26.20;99.90;;;;;;5018913;28;20038;-52
2023/06/13 10:58:01;;;;;;;10.00;4.90;;;26.20;99.90;;;;;;5017550;28;20053;-59
2023/06/13 11:01:23;;;;;;;7.97;5.40;;;25.80;99.90;;;;;;5026967;28;20427;-57
2023/06/13 11:04:29;;;;;;;8.32;5.22;;;25.60;99.90;;;;;;5014458;28;20045;-56
2023/06/13 11:07:33;;;;;;;6.63;5.15;;;25.40;99.90;;;;;;5017317;28;20048;-55
2023/06/13 11:10:38;;;;;;;8.07;5.53;;;25.30;99.90;;;;;;5017584;28;20063;-54
2023/06/13 11:13:44;;;;;;;7.85;6.10;;;25.10;99.90;;;;;;5021276;28;20045;-56
2023/06/13 11:16:48;;;;;;;8.45;6.22;;;25.00;99.90;;;;;;5018752;28;20057;-56
2023/06/13 11:19:55;;;;;;;9.88;5.60;;;24.50;99.90;;;;;;5016564;28;20054;-54
2023/06/13 11:23:00;;;;;;;11.23;6.90;;;24.30;99.90;;;;;;5027393;28;20044;-54
2023/06/13 11:26:05;;;;;;;9.52;6.47;;;24.30;99.90;;;;;;5030526;28;20078;-54
2023/06/13 11:29:10;;;;;;;8.43;5.90;;;24.30;99.90;;;;;;5029903;28;20037;-51
2023/06/13 11:32:15;;;;;;;8.70;6.43;;;24.30;99.90;;;;;;5022841;28;20033;-50
2023/06/13 11:35:23;;;;;;;9.75;5.60;;;23.70;99.90;;;;;;5020725;28;20049;-54
2023/06/13 11:38:43;;;;;;;12.02;7.25;;;23.30;99.90;;;;;;5029416;28;20034;-55
2023/06/13 11:41:47;;;;;;;10.45;7.63;;;22.40;99.90;;;;;;5027435;28;20044;-55
2023/06/13 11:44:52;;;;;;;11.63;7.30;;;22.20;99.90;;;;;;5021137;28;20036;-51
2023/06/13 11:47:57;;;;;;;11.95;7.47;;;21.90;99.90;;;;;;5027497;28;20028;-52
2023/06/13 11:51:12;;;;;;;15.32;8.65;;;21.60;99.90;;;;;;5015710;28;20059;-54
2023/06/13 11:54:16;;;;;;;12.27;9.20;;;21.30;99.90;;;;;;5026755;28;20140;-54
2023/06/13 11:57:20;;;;;;;15.15;9.60;;;21.10;99.90;;;;;;5030994;28;20037;-52
2023/06/13 12:00:28;;;;;;;17.95;10.43;;;20.80;99.90;;;;;;5019356;28;20036;-55
2023/06/13 12:03:40;;;;;;;13.23;9.35;;;20.60;99.90;;;;;;5021588;28;20502;-54
2023/06/13 12:06:44;;;;;;;14.68;10.70;;;20.40;99.90;;;;;;5026821;28;20040;-50
2023/06/13 12:09:48;;;;;;;15.50;10.48;;;20.20;99.90;;;;;;5023856;28;20041;-57
2023/06/13 12:12:56;;;;;;;15.10;9.45;;;19.90;99.90;;;;;;5030224;28;20048;-58
2023/06/13 12:16:01;;;;;;;16.05;10.55;;;19.60;99.90;;;;;;5021538;28;20039;-53
2023/06/13 12:19:07;;;;;;;20.02;9.88;;;19.50;99.90;;;;;;5020029;28;20040;-54
2023/06/13 12:22:13;;;;;;;15.52;9.45;;;19.40;99.90;;;;;;5024144;28;20041;-52
2023/06/13 12:25:17;;;;;;;13.63;9.10;;;19.30;99.90;;;;;;5018713;28;20108;-56
2023/06/13 12:28:22;;;;;;;13.95;10.25;;;19.30;99.90;;;;;;5042225;23;20044;-60
2023/06/13 12:31:32;;;;;;;10.93;8.65;;;19.30;99.90;;;;;;5030294;28;20052;-59
2023/06/13 12:34:41;;;;;;;12.95;9.15;;;19.30;99.90;;;;;;5023115;28;20045;-62
2023/06/13 12:37:48;;;;;;;13.02;7.93;;;19.30;99.90;;;;;;5032068;28;20037;-59
2023/06/13 12:40:52;;;;;;;11.90;9.25;;;19.30;99.90;;;;;;5023134;28;20049;-58
2023/06/13 12:43:58;;;;;;;11.77;8.27;;;19.60;99.90;;;;;;5022835;28;20060;-58
2023/06/13 12:47:04;;;;;;;13.68;9.35;;;19.80;99.90;;;;;;5020083;28;20048;-59
2023/06/13 12:50:12;;;;;;;11.88;9.32;;;19.90;99.90;;;;;;5020181;28;21265;-58
2023/06/13 12:53:23;;;;;;;15.50;10.73;;;19.90;99.90;;;;;;5026696;28;20048;-55
2023/06/13 12:56:27;;;;;;;17.27;10.13;;;19.90;99.90;;;;;;5031570;28;20309;-61
2023/06/13 12:59:39;;;;;;;15.23;10.15;;;19.90;99.90;;;;;;5024651;28;20044;-59
2023/06/13 13:02:43;;;;;;;16.05;11.50;;;19.80;99.90;;;;;;5029367;28;20072;-55
2023/06/13 13:05:50;;;;;;;18.92;11.25;;;19.50;99.90;;;;;;5027586;28;20100;-58
2023/06/13 13:08:54;;;;;;;16.98;10.88;;;19.50;99.90;;;;;;5023618;28;20045;-57
2023/06/13 13:11:59;;;;;;;15.73;10.23;;;19.50;99.90;;;;;;5022690;28;20040;-58
2023/06/13 13:15:03;;;;;;;14.93;8.65;;;19.30;99.90;;;;;;5023695;28;20056;-53
2023/06/13 13:18:09;;;;;;;13.88;8.23;;;18.70;99.90;;;;;;5025850;28;20045;-52
2023/06/13 13:21:13;;;;;;;15.52;8.82;;;18.70;99.90;;;;;;5028340;28;20044;-59
2023/06/13 13:24:17;;;;;;;11.73;7.55;;;18.80;99.90;;;;;;5026856;28;20068;-53
2023/06/13 13:27:21;;;;;;;10.18;7.10;;;19.10;99.90;;;;;;5028971;28;20392;-54
2023/06/13 13:30:26;;;;;;;8.57;5.68;;;19.30;99.90;;;;;;5026075;28;20511;-55
2023/06/13 13:33:30;;;;;;;9.75;5.10;;;19.60;99.90;;;;;;5025522;28;20044;-55
2023/06/13 13:36:33;;;;;;;6.82;4.60;;;19.80;99.90;;;;;;5023285;28;20053;-60
2023/06/13 13:39:37;;;;;;;6.25;4.88;;;19.90;99.90;;;;;;5028908;28;20041;-58
2023/06/13 13:42:42;;;;;;;8.95;5.20;;;20.20;99.90;;;;;;5025644;28;20395;-57
2023/06/13 13:45:46;;;;;;;8.25;5.13;;;20.70;99.90;;;;;;5029326;28;20132;-55
2023/06/13 13:48:50;;;;;;;6.43;4.90;;;20.70;99.90;;;;;;5019717;28;20404;-54
2023/06/13 13:51:54;;;;;;;6.28;4.22;;;21.20;99.90;;;;;;5015556;28;20038;-55
2023/06/13 13:54:59;;;;;;;6.35;4.43;;;21.60;99.90;;;;;;5025368;28;20038;-57
2023/06/13 13:58:04;;;;;;;7.75;4.90;;;22.10;99.90;;;;;;5026327;28;20056;-54
2023/06/13 14:01:08;;;;;;;7.03;4.93;;;22.30;99.90;;;;;;5026244;28;20068;-58
2023/06/13 14:04:13;;;;;;;9.15;4.07;;;22.60;99.90;;;;;;5029087;28;20407;-57
2023/06/13 14:07:17;;;;;;;6.70;4.10;;;22.90;99.90;;;;;;5029414;28;20054;-55
2023/06/13 14:10:21;;;;;;;5.95;4.43;;;21.90;99.90;;;;;;5029395;28;20113;-57
2023/06/13 14:13:26;;;;;;;6.93;4.38;;;22.40;99.90;;;;;;5027727;28;20044;-55
2023/06/13 14:16:32;;;;;;;8.52;4.80;;;22.80;99.90;;;;;;5024960;28;20044;-56
2023/06/13 14:19:36;;;;;;;5.22;4.07;;;22.40;99.90;;;;;;5028516;28;20048;-54
2023/06/13 14:22:39;;;;;;;6.22;4.53;;;22.30;99.90;;;;;;5022676;28;20514;-58
2023/06/13 14:25:44;;;;;;;4.20;3.55;;;23.20;99.90;;;;;;5025080;28;20061;-57
2023/06/13 14:28:48;;;;;;;8.27;4.28;;;23.80;99.90;;;;;;5027775;28;20052;-60
2023/06/13 14:31:53;;;;;;;8.20;3.55;;;24.40;99.90;;;;;;5024202;28;20033;-59
2023/06/13 14:34:57;;;;;;;5.25;3.70;;;24.50;99.90;;;;;;5026061;28;20036;-58
2023/06/13 14:38:01;;;;;;;7.93;3.85;;;24.40;99.90;;;;;;5030360;28;20125;-53
2023/06/13 14:41:05;;;;;;;5.68;4.43;;;23.80;99.90;;;;;;5026929;28;20033;-58
2023/06/13 14:44:09;;;;;;;6.88;4.28;;;22.30;99.90;;;;;;5026230;28;20056;-56
2023/06/13 14:47:15;;;;;;;6.55;4.25;;;22.10;99.90;;;;;;5028150;28;20056;-56
2023/06/13 14:50:19;;;;;;;6.22;4.40;;;22.40;99.90;;;;;;5029354;28;20052;-58
2023/06/13 14:53:23;;;;;;;7.28;4.13;;;22.60;99.90;;;;;;5028497;28;20042;-57
2023/06/13 14:56:27;;;;;;;9.05;4.32;;;22.70;99.90;;;;;;5030155;28;20042;-54
2023/06/13 14:59:31;;;;;;;6.00;4.40;;;22.80;99.90;;;;;;5028407;28;20650;-55
2023/06/13 15:02:35;;;;;;;8.35;4.03;;;22.60;99.90;;;;;;5025662;28;20049;-61
2023/06/13 15:05:39;;;;;;;11.43;4.53;;;21.70;99.90;;;;;;5014438;28;20049;-57
2023/06/13 15:08:43;;;;;;;4.97;4.00;;;22.30;99.90;;;;;;5026176;28;20043;-58
2023/06/13 15:11:47;;;;;;;6.60;4.00;;;21.00;99.90;;;;;;5021483;28;20404;-54
2023/06/13 15:14:51;;;;;;;10.35;5.32;;;21.00;99.90;;;;;;5018632;28;20480;-57
2023/06/13 15:17:55;;;;;;;10.30;5.38;;;20.40;99.90;;;;;;5019548;28;20487;-55
2023/06/13 15:21:04;;;;;;;5.68;4.55;;;20.60;99.90;;;;;;5022117;28;20052;-54
2023/06/13 15:24:07;;;;;;;8.27;4.90;;;20.70;99.90;;;;;;5020228;28;20066;-58
2023/06/13 15:27:12;;;;;;;7.45;5.30;;;20.70;99.90;;;;;;5013870;28;20045;-56
2023/06/13 15:30:16;;;;;;;6.93;5.10;;;21.00;99.90;;;;;;5025131;28;20052;-59
2023/06/13 15:33:24;;;;;;;7.85;5.05;;;20.90;99.90;;;;;;5026669;28;20057;-56
2023/06/13 15:36:28;;;;;;;8.38;5.53;;;21.10;99.90;;;;;;5028257;28;20036;-55
2023/06/13 15:39:32;;;;;;;9.73;6.07;;;20.70;99.90;;;;;;5028318;28;20033;-53
2023/06/13 15:42:36;;;;;;;9.70;6.10;;;20.30;99.90;;;;;;5026768;28;20042;-56
2023/06/13 15:45:40;;;;;;;13.07;7.25;;;20.40;99.90;;;;;;5030263;28;20040;-58
2023/06/13 15:48:44;;;;;;;10.80;6.68;;;20.20;99.90;;;;;;5030924;28;20040;-55
2023/06/13 15:51:48;;;;;;;13.20;7.07;;;20.00;99.90;;;;;;5027591;28;20460;-53
2023/06/13 15:54:53;;;;;;;12.80;7.30;;;20.00;99.90;;;;;;5024954;28;20040;-55
2023/06/13 15:57:57;;;;;;;11.02;7.20;;;20.00;99.90;;;;;;5032353;28;20511;-53
2023/06/13 16:01:02;;;;;;;14.48;7.50;;;20.00;99.90;;;;;;5030627;28;20056;-56
2023/06/13 16:04:06;;;;;;;10.27;6.70;;;19.80;99.90;;;;;;5029745;28;20036;-54
2023/06/13 16:07:11;;;;;;;11.32;6.95;;;19.80;99.90;;;;;;5029692;28;20052;-54
2023/06/13 16:10:15;;;;;;;8.88;6.50;;;19.50;99.90;;;;;;5029840;28;20048;-55
2023/06/13 16:13:19;;;;;;;14.20;6.88;;;19.10;99.90;;;;;;5028951;28;20042;-54
2023/06/13 16:16:23;;;;;;;9.50;6.65;;;19.10;99.90;;;;;;5025002;28;20507;-57
2023/06/13 16:19:27;;;;;;;10.65;6.63;;;19.10;99.90;;;;;;5041761;28;20025;-53
2023/06/13 16:22:31;;;;;;;9.80;7.55;;;19.00;99.90;;;;;;5022579;28;20045;-54
2023/06/13 16:25:35;;;;;;;12.63;6.70;;;19.10;99.90;;;;;;5026286;28;20515;-57
2023/06/13 16:28:39;;;;;;;12.48;8.00;;;19.00;99.90;;;;;;5027674;28;20057;-56
2023/06/13 16:31:48;;;;;;;15.07;8.48;;;18.80;99.90;;;;;;5025577;28;20044;-58
2023/06/13 16:34:52;;;;;;;10.80;8.00;;;18.70;99.90;;;;;;5024601;28;20049;-57
2023/06/13 16:37:56;;;;;;;10.90;7.72;;;18.70;99.90;;;;;;5026721;28;20107;-56
2023/06/13 16:41:00;;;;;;;12.60;8.00;;;18.90;99.90;;;;;;5012412;28;20056;-56
2023/06/13 16:44:04;;;;;;;13.00;9.32;;;19.10;99.90;;;;;;5012646;28;20049;-55
2023/06/13 16:47:08;;;;;;;11.05;8.15;;;19.20;99.90;;;;;;5012881;28;20053;-57
2023/06/13 16:50:12;;;;;;;14.07;7.97;;;19.30;99.90;;;;;;5012772;28;20033;-58
2023/06/13 16:53:17;;;;;;;13.68;8.13;;;19.30;99.90;;;;;;5011383;28;20049;-58
2023/06/13 16:56:21;;;;;;;11.77;6.97;;;19.50;99.90;;;;;;5012210;28;20041;-58
2023/06/13 16:59:25;;;;;;;9.57;6.32;;;21.10;99.90;;;;;;5012333;28;20557;-57
2023/06/13 17:02:29;;;;;;;9.90;6.68;;;19.60;99.90;;;;;;5012039;28;20034;-58
2023/06/13 17:05:33;;;;;;;9.82;5.88;;;19.50;99.90;;;;;;5011997;28;20030;-57
2023/06/13 17:08:37;;;;;;;6.90;5.68;;;19.30;99.90;;;;;;5012084;28;20045;-56
2023/06/13 17:11:41;;;;;;;10.52;6.47;;;19.20;99.90;;;;;;5011740;28;20314;-58
2023/06/13 17:14:45;;;;;;;8.43;6.25;;;19.20;99.90;;;;;;5011913;28;20045;-57
2023/06/13 17:17:48;;;;;;;8.32;6.00;;;19.10;99.90;;;;;;5011922;28;20034;-53
2023/06/13 17:20:57;;;;;;;15.15;7.05;;;19.00;99.90;;;;;;5011884;28;20044;-57
2023/06/13 17:24:01;;;;;;;9.32;6.97;;;18.80;99.90;;;;;;5011910;28;20049;-56
2023/06/13 17:27:05;;;;;;;10.65;7.07;;;18.90;99.90;;;;;;5011636;28;20496;-55
2023/06/13 17:30:10;;;;;;;12.70;6.72;;;18.80;99.90;;;;;;5011599;28;20503;-54
2023/06/13 17:33:14;;;;;;;7.43;6.10;;;18.80;99.90;;;;;;5011517;28;20070;-55
2023/06/13 17:36:18;;;;;;;8.40;6.35;;;18.80;99.90;;;;;;5011308;28;21066;-57
2023/06/13 17:39:23;;;;;;;6.43;5.65;;;18.70;99.90;;;;;;5011540;28;20052;-54
2023/06/13 17:42:27;;;;;;;15.20;6.00;;;18.60;99.90;;;;;;5011159;28;20056;-56
2023/06/13 17:45:32;;;;;;;6.72;5.20;;;18.60;99.90;;;;;;5011375;28;20049;-57
2023/06/13 17:48:36;;;;;;;9.07;5.72;;;18.60;99.90;;;;;;5011300;28;20053;-56
2023/06/13 17:51:40;;;;;;;10.00;5.47;;;18.60;99.90;;;;;;5010038;28;20050;-55
2023/06/13 17:54:45;;;;;;;9.23;5.45;;;18.60;99.90;;;;;;5011017;28;20048;-52
2023/06/13 17:57:48;;;;;;;12.40;6.38;;;18.70;99.90;;;;;;5011248;28;20078;-53
2023/06/13 18:00:52;;;;;;;9.30;6.68;;;18.70;99.90;;;;;;5011272;28;20606;-52
2023/06/13 18:03:56;;;;;;;9.57;6.55;;;18.70;99.90;;;;;;5011389;28;20045;-55
2023/06/13 18:07:01;;;;;;;12.77;6.68;;;18.80;99.90;;;;;;5010425;28;20096;-58
2023/06/13 18:10:06;;;;;;;8.63;5.95;;;18.80;99.90;;;;;;5011116;28;20049;-58
2023/06/13 18:13:10;;;;;;;9.27;6.18;;;18.70;99.90;;;;;;5011052;28;20045;-53
2023/06/13 18:16:14;;;;;;;9.90;6.70;;;18.70;99.90;;;;;;5011098;28;20054;-54
2023/06/13 18:19:18;;;;;;;12.80;6.82;;;18.60;99.90;;;;;;5010701;28;20042;-54
2023/06/13 18:22:22;;;;;;;8.13;6.50;;;18.60;99.90;;;;;;5010538;28;20041;-58
2023/06/13 18:25:26;;;;;;;11.27;6.95;;;18.60;99.90;;;;;;5010733;28;20057;-54
2023/06/13 18:28:30;;;;;;;10.57;6.55;;;18.60;99.90;;;;;;5024796;22;20444;-69
2023/06/13 18:31:35;;;;;;;11.73;7.15;;;18.50;99.90;;;;;;5050088;28;20403;-70
2023/06/13 18:34:39;;;;;;;8.63;6.55;;;18.50;99.90;;;;;;5050655;28;20044;-70
2023/06/13 18:37:44;;;;;;;9.00;6.47;;;18.40;99.90;;;;;;5050550;28;20053;-69
2023/06/13 18:40:48;;;;;;;8.20;6.63;;;18.40;99.90;;;;;;5050635;28;20056;-69
2023/06/13 18:43:53;;;;;;;10.73;7.10;;;18.40;99.90;;;;;;5050220;28;20048;-69
2023/06/13 18:46:56;;;;;;;11.35;6.80;;;18.40;99.90;;;;;;5049044;28;20059;-70
2023/06/13 18:50:01;;;;;;;9.35;7.65;;;18.30;99.90;;;;;;5050309;28;20048;-70
2023/06/13 18:53:05;;;;;;;12.05;7.57;;;18.30;99.90;;;;;;5049579;28;20033;-70
2023/06/13 18:56:10;;;;;;;13.65;8.65;;;18.20;99.90;;;;;;5050288;28;20056;-70
2023/06/13 18:59:14;;;;;;;10.07;6.47;;;18.20;99.90;;;;;;5037583;28;20048;-69
2023/06/13 19:02:18;;;;;;;12.20;7.22;;;18.30;99.90;;;;;;5049859;28;20044;-70
2023/06/13 19:05:22;;;;;;;11.55;7.25;;;18.30;99.90;;;;;;5049784;28;20052;-69
2023/06/13 19:08:26;;;;;;;12.88;7.68;;;18.30;99.90;;;;;;5050235;28;20051;-70
2023/06/13 19:11:30;;;;;;;13.43;7.47;;;18.30;99.90;;;;;;5049458;28;20044;-69
2023/06/13 19:14:34;;;;;;;12.73;7.80;;;18.30;99.90;;;;;;5049285;28;20048;-70
2023/06/13 19:17:38;;;;;;;13.77;7.88;;;18.30;99.90;;;;;;5050528;28;20040;-70
2023/06/13 19:20:42;;;;;;;16.58;8.75;;;18.30;99.90;;;;;;5050047;28;20107;-70
2023/06/13 19:23:47;;;;;;;12.88;8.43;;;18.30;99.90;;;;;;5050344;28;20040;-69
2023/06/13 19:26:51;;;;;;;10.52;8.35;;;18.40;99.90;;;;;;5049851;28;20134;-69
2023/06/13 19:29:55;;;;;;;11.68;7.57;;;18.40;99.90;;;;;;5049834;28;20506;-70
2023/06/13 19:33:00;;;;;;;13.27;8.57;;;18.40;99.90;;;;;;5049498;28;20048;-69
2023/06/13 19:36:05;;;;;;;15.52;8.20;;;18.40;99.90;;;;;;5049851;28;20048;-70
2023/06/13 19:39:10;;;;;;;15.45;10.05;;;18.40;99.90;;;;;;5049376;28;20337;-70
2023/06/13 19:42:14;;;;;;;15.65;11.40;;;18.50;99.90;;;;;;5052169;28;20057;-70
2023/06/13 19:45:18;;;;;;;15.07;9.82;;;18.50;99.90;;;;;;5049826;28;20039;-69
2023/06/13 19:48:22;;;;;;;14.00;11.05;;;18.60;99.90;;;;;;5049623;28;20347;-70
2023/06/13 19:51:26;;;;;;;17.70;12.68;;;18.60;99.90;;;;;;5048313;28;20395;-69
2023/06/13 19:54:30;;;;;;;9.38;8.00;;;18.70;99.90;;;;;;5049744;28;20064;-69
2023/06/13 19:57:35;;;;;;;11.90;6.93;;;18.70;99.90;;;;;;5049465;28;20048;-70
2023/06/13 20:00:39;;;;;;;12.93;9.02;;;18.60;99.90;;;;;;5049708;28;20415;-70
2023/06/13 20:03:43;;;;;;;12.80;7.95;;;18.70;99.90;;;;;;5049610;28;20051;-70
2023/06/13 20:06:47;;;;;;;18.92;8.07;;;18.70;99.90;;;;;;5049515;28;20056;-70
2023/06/13 20:09:52;;;;;;;17.88;7.32;;;18.50;99.90;;;;;;5049749;28;20047;-70
2023/06/13 20:12:56;;;;;;;12.98;7.32;;;18.50;99.90;;;;;;5049156;28;20048;-70
2023/06/13 20:16:02;;;;;;;10.50;6.15;;;18.40;99.90;;;;;;5050182;28;20040;-70
2023/06/13 20:19:06;;;;;;;10.32;6.03;;;18.40;99.90;;;;;;5052920;28;20036;-69
2023/06/13 20:22:10;;;;;;;9.93;6.22;;;18.40;99.90;;;;;;5052889;28;20056;-69
2023/06/13 20:25:14;;;;;;;7.50;6.05;;;18.30;99.90;;;;;;5053121;28;20048;-70
2023/06/13 20:28:19;;;;;;;9.55;6.63;;;18.30;99.90;;;;;;5051598;28;20048;-70
2023/06/13 20:31:22;;;;;;;8.60;6.60;;;18.40;99.90;;;;;;5051618;28;20043;-70
2023/06/13 20:34:26;;;;;;;10.55;6.68;;;18.50;99.90;;;;;;5052995;28;20036;-69
2023/06/13 20:37:31;;;;;;;11.20;5.82;;;18.50;99.90;;;;;;5052745;28;20044;-70
2023/06/13 20:40:35;;;;;;;12.02;6.57;;;18.50;99.90;;;;;;5052856;28;20067;-69
2023/06/13 20:43:40;;;;;;;12.98;6.30;;;18.60;99.90;;;;;;5052240;28;20040;-70
2023/06/13 20:46:45;;;;;;;10.80;6.65;;;18.60;99.90;;;;;;5052728;28;20055;-65
2023/06/13 20:49:50;;;;;;;41.60;21.33;;;18.60;99.90;;;;;;5052743;28;20071;-63
2023/06/13 20:52:54;;;;;;;87.65;39.92;;;18.70;99.90;;;;;;5052319;28;20044;-65
2023/06/13 20:55:59;;;;;;;88.93;41.45;;;18.70;99.90;;;;;;5052727;28;20044;-65
2023/06/13 20:59:04;;;;;;;70.47;34.63;;;18.70;99.90;;;;;;5052398;28;20048;-65
2023/06/13 21:02:10;;;;;;;47.50;23.65;;;18.70;99.90;;;;;;5051905;28;20051;-64
2023/06/13 21:05:15;;;;;;;20.75;11.65;;;18.60;99.90;;;;;;5052496;28;20055;-64
2023/06/13 21:08:20;;;;;;;20.98;9.52;;;18.30;99.90;;;;;;5051378;28;20044;-64
2023/06/13 21:11:26;;;;;;;17.55;9.02;;;18.20;99.90;;;;;;5051754;28;20052;-65
2023/06/13 21:14:30;;;;;;;13.68;8.57;;;18.10;99.90;;;;;;5052221;28;20040;-64
2023/06/13 21:17:34;;;;;;;17.15;10.10;;;18.10;99.90;;;;;;5052670;28;20048;-65
2023/06/13 21:20:38;;;;;;;17.08;11.55;;;18.10;99.90;;;;;;5052387;28;20053;-65
2023/06/13 21:23:42;;;;;;;17.58;10.32;;;18.20;99.90;;;;;;5051994;28;20060;-64
2023/06/13 21:26:46;;;;;;;17.75;10.48;;;18.10;99.90;;;;;;5052362;28;20394;-64
2023/06/13 21:29:51;;;;;;;18.42;11.23;;;18.10;99.90;;;;;;5051084;28;20060;-65
2023/06/13 21:32:55;;;;;;;19.80;11.98;;;18.10;99.90;;;;;;5051796;28;20398;-64
2023/06/13 21:35:59;;;;;;;15.18;10.73;;;18.10;99.90;;;;;;5052015;28;20060;-64
2023/06/13 21:39:04;;;;;;;28.10;13.82;;;18.00;99.90;;;;;;5051901;28;20036;-64
2023/06/13 21:42:08;;;;;;;24.52;13.35;;;17.90;99.90;;;;;;5051238;28;20052;-64
2023/06/13 21:45:12;;;;;;;20.90;14.57;;;18.00;99.90;;;;;;5051200;28;20048;-63
2023/06/13 21:48:16;;;;;;;78.13;19.42;;;18.00;99.90;;;;;;5051471;28;20047;-63
2023/06/13 21:51:20;;;;;;;25.17;17.27;;;17.90;99.90;;;;;;5051138;28;20056;-64
2023/06/13 21:54:24;;;;;;;22.88;16.00;;;17.80;99.90;;;;;;5051713;28;20048;-63
2023/06/13 21:57:28;;;;;;;20.05;14.95;;;17.90;99.90;;;;;;5051378;28;20411;-65
2023/06/13 22:00:33;;;;;;;16.60;13.20;;;17.90;99.90;;;;;;5051534;28;20063;-65
2023/06/13 22:03:37;;;;;;;18.17;13.50;;;17.90;99.90;;;;;;5051307;28;20037;-66
2023/06/13 22:06:41;;;;;;;19.85;13.60;;;17.80;99.90;;;;;;5051332;28;20048;-65
2023/06/13 22:09:48;;;;;;;18.25;12.60;;;17.90;99.90;;;;;;5051435;28;20044;-66
2023/06/13 22:12:52;;;;;;;13.15;9.32;;;17.90;99.90;;;;;;5050522;28;20043;-65
2023/06/13 22:15:56;;;;;;;13.20;8.32;;;17.90;99.90;;;;;;5048499;28;20047;-66
2023/06/13 22:19:01;;;;;;;9.82;7.35;;;17.90;99.90;;;;;;5050858;28;20044;-66
2023/06/13 22:22:05;;;;;;;15.25;7.30;;;17.80;99.90;;;;;;5050461;28;20064;-66
2023/06/13 22:25:09;;;;;;;10.18;6.90;;;17.80;99.90;;;;;;5050773;28;20048;-66
2023/06/13 22:28:13;;;;;;;13.05;6.43;;;17.70;99.90;;;;;;5050818;28;20056;-66
2023/06/13 22:31:17;;;;;;;7.82;5.68;;;17.90;99.90;;;;;;5050325;28;20404;-65
2023/06/13 22:34:22;;;;;;;10.15;6.18;;;17.80;99.90;;;;;;5050868;28;20044;-65
2023/06/13 22:37:26;;;;;;;8.23;5.55;;;17.80;99.90;;;;;;5049595;28;20024;-65
2023/06/13 22:40:30;;;;;;;8.73;5.80;;;17.90;99.90;;;;;;5050385;28;20395;-66
2023/06/13 22:43:34;;;;;;;10.38;6.57;;;17.90;99.90;;;;;;5050484;28;20041;-65
2023/06/13 22:46:46;;;;;;;10.25;5.68;;;18.00;99.90;;;;;;5050169;28;20064;-65
2023/06/13 22:49:54;;;;;;;8.90;5.35;;;18.00;99.90;;;;;;5050392;28;20051;-65
2023/06/13 22:52:58;;;;;;;6.32;4.70;;;18.10;99.90;;;;;;5050213;28;20045;-65
2023/06/13 22:56:03;;;;;;;8.18;4.50;;;19.70;99.90;;;;;;5050235;28;20033;-64
2023/06/13 22:59:08;;;;;;;6.47;4.35;;;18.20;99.90;;;;;;5050546;28;20048;-64
2023/06/13 23:02:12;;;;;;;9.57;5.35;;;18.30;99.90;;;;;;5050173;28;20051;-64
2023/06/13 23:05:17;;;;;;;7.93;5.55;;;18.30;99.90;;;;;;5050287;28;20045;-64